Pays
Station

 

Conditions  météo  pour  Manteo/Dare County Regional  -  Etats-Unis    Etats-Unis

  
15 °C
    
 
 

METAR pour Manteo/Dare County Regional :

KMQI 251455Z AUTO 03011KT 10SM OVC005 15/13 A3019 RMK AO2 T01500132

 

Voici le bulletin pour Manteo/Dare County Regional - Etats-Unis.
 
Le bulletin a été fait il y a 8 minutes, à 14:55 UTC .
Le vent soufflait à la vitesse de 5.7 mètres par seconde de Nord/Nord-est (030°).
 
La température était de 15 °C, avec un point de rosée à 13 °C.
La pression atmosphérique était de 1022 hPa.
L'humidité relative était de 87.8%.
 
Le ciel était nuageux à partir d'une hauteur de 152 mètres
 
La visibilité globale était de 16.1 kilomètres.
 

 
 
 

Pays :   A   B   C   D   E   F   G   H   I   J   K   L   M   N   O   P   Q   R   S   T   U   V   W   Y   Z

 

Partenaires :  Info Météo avec Met'info
Météo Marine avec MeteoMarine.net
Infos Site  |  Infos Légales  |  Crédits  |  Confidentialité
Contactez-nous  |  Ajouter aux favoris
© 2013-2020 METAR - Tous droits réservés